sensor_id;sensor_type;location;lat;lon;timestamp;P1;durP1;ratioP1;P2;durP2;ratioP2
71965;SDS011;59836;52.132;5.442;2022-07-23T00:01:03;1.92;;;1.73;;
71965;SDS011;59836;52.132;5.442;2022-07-23T00:03:30;3.33;;;1.67;;
71965;SDS011;59836;52.132;5.442;2022-07-23T00:06:11;2.83;;;1.50;;
71965;SDS011;59836;52.132;5.442;2022-07-23T00:08:42;4.88;;;1.95;;
71965;SDS011;59836;52.132;5.442;2022-07-23T00:11:09;3.08;;;1.48;;
71965;SDS011;59836;52.132;5.442;2022-07-23T00:13:35;4.88;;;2.30;;
71965;SDS011;59836;52.132;5.442;2022-07-23T00:16:18;2.67;;;1.70;;
71965;SDS011;59836;52.132;5.442;2022-07-23T00:18:58;2.58;;;1.92;;
71965;SDS011;59836;52.132;5.442;2022-07-23T00:21:30;3.67;;;2.17;;
71965;SDS011;59836;52.132;5.442;2022-07-23T00:23:56;2.83;;;1.83;;
71965;SDS011;59836;52.132;5.442;2022-07-23T00:26:24;3.33;;;2.40;;
71965;SDS011;59836;52.132;5.442;2022-07-23T00:28:51;3.20;;;1.90;;
71965;SDS011;59836;52.132;5.442;2022-07-23T00:31:24;4.45;;;2.15;;
71965;SDS011;59836;52.132;5.442;2022-07-23T00:33:51;5.28;;;2.40;;
71965;SDS011;59836;52.132;5.442;2022-07-23T00:36:20;4.85;;;1.90;;
71965;SDS011;59836;52.132;5.442;2022-07-23T00:38:59;3.60;;;2.28;;
71965;SDS011;59836;52.132;5.442;2022-07-23T00:41:26;3.07;;;1.97;;
71965;SDS011;59836;52.132;5.442;2022-07-23T00:43:53;4.53;;;2.58;;
71965;SDS011;59836;52.132;5.442;2022-07-23T00:49:25;3.10;;;2.35;;
71965;SDS011;59836;52.132;5.442;2022-07-23T00:52:04;4.03;;;2.40;;
71965;SDS011;59836;52.132;5.442;2022-07-23T00:57:08;4.28;;;2.38;;
71965;SDS011;59836;52.132;5.442;2022-07-23T01:02:46;4.47;;;2.53;;
71965;SDS011;59836;52.132;5.442;2022-07-23T01:05:14;4.68;;;2.70;;
71965;SDS011;59836;52.132;5.442;2022-07-23T01:10:35;4.28;;;2.30;;
71965;SDS011;59836;52.132;5.442;2022-07-23T01:13:06;4.13;;;2.58;;
71965;SDS011;59836;52.132;5.442;2022-07-23T01:18:19;4.05;;;3.17;;
71965;SDS011;59836;52.132;5.442;2022-07-23T01:20:54;4.60;;;2.33;;
71965;SDS011;59836;52.132;5.442;2022-07-23T01:23:21;3.00;;;2.47;;
71965;SDS011;59836;52.132;5.442;2022-07-23T01:25:48;4.47;;;2.42;;
71965;SDS011;59836;52.132;5.442;2022-07-23T01:31:24;5.10;;;3.00;;
71965;SDS011;59836;52.132;5.442;2022-07-23T01:34:06;5.03;;;3.10;;
71965;SDS011;59836;52.132;5.442;2022-07-23T01:36:34;4.05;;;2.60;;
71965;SDS011;59836;52.132;5.442;2022-07-23T01:41:38;3.90;;;2.67;;
71965;SDS011;59836;52.132;5.442;2022-07-23T01:44:05;3.83;;;2.75;;
71965;SDS011;59836;52.132;5.442;2022-07-23T01:46:49;4.87;;;2.57;;
71965;SDS011;59836;52.132;5.442;2022-07-23T01:49:16;3.80;;;3.00;;
71965;SDS011;59836;52.132;5.442;2022-07-23T01:51:43;4.45;;;2.88;;
71965;SDS011;59836;52.132;5.442;2022-07-23T01:54:29;4.30;;;2.45;;
71965;SDS011;59836;52.132;5.442;2022-07-23T01:57:02;4.20;;;2.60;;
71965;SDS011;59836;52.132;5.442;2022-07-23T01:59:43;4.53;;;2.77;;
71965;SDS011;59836;52.132;5.442;2022-07-23T02:02:10;3.78;;;3.03;;
71965;SDS011;59836;52.132;5.442;2022-07-23T02:04:36;5.15;;;2.85;;
71965;SDS011;59836;52.132;5.442;2022-07-23T02:07:06;3.00;;;2.35;;
71965;SDS011;59836;52.132;5.442;2022-07-23T02:09:37;4.25;;;2.70;;
71965;SDS011;59836;52.132;5.442;2022-07-23T02:12:03;4.10;;;2.80;;
71965;SDS011;59836;52.132;5.442;2022-07-23T02:14:30;4.55;;;3.22;;
71965;SDS011;59836;52.132;5.442;2022-07-23T02:16:59;5.68;;;2.95;;
71965;SDS011;59836;52.132;5.442;2022-07-23T02:19:28;4.90;;;3.03;;
71965;SDS011;59836;52.132;5.442;2022-07-23T02:21:55;3.75;;;2.78;;
71965;SDS011;59836;52.132;5.442;2022-07-23T02:24:21;4.50;;;2.67;;
71965;SDS011;59836;52.132;5.442;2022-07-23T02:26:49;6.05;;;3.17;;
71965;SDS011;59836;52.132;5.442;2022-07-23T02:31:56;6.72;;;2.90;;
71965;SDS011;59836;52.132;5.442;2022-07-23T02:34:25;4.10;;;2.88;;
71965;SDS011;59836;52.132;5.442;2022-07-23T02:37:07;4.07;;;2.67;;
71965;SDS011;59836;52.132;5.442;2022-07-23T02:42:05;4.85;;;3.13;;
71965;SDS011;59836;52.132;5.442;2022-07-23T02:47:24;6.28;;;2.78;;
71965;SDS011;59836;52.132;5.442;2022-07-23T02:49:50;4.57;;;2.73;;
71965;SDS011;59836;52.132;5.442;2022-07-23T02:52:21;4.32;;;2.35;;
71965;SDS011;59836;52.132;5.442;2022-07-23T02:54:48;3.85;;;2.90;;
71965;SDS011;59836;52.132;5.442;2022-07-23T02:57:15;4.25;;;2.60;;
71965;SDS011;59836;52.132;5.442;2022-07-23T02:59:41;5.72;;;2.80;;
71965;SDS011;59836;52.132;5.442;2022-07-23T03:08:06;4.55;;;2.53;;
71965;SDS011;59836;52.132;5.442;2022-07-23T03:10:34;4.28;;;2.53;;
71965;SDS011;59836;52.132;5.442;2022-07-23T03:13:08;4.13;;;3.10;;
71965;SDS011;59836;52.132;5.442;2022-07-23T03:18:19;3.92;;;2.88;;
71965;SDS011;59836;52.132;5.442;2022-07-23T03:20:50;5.22;;;2.70;;
71965;SDS011;59836;52.132;5.442;2022-07-23T03:25:46;3.53;;;2.50;;
71965;SDS011;59836;52.132;5.442;2022-07-23T03:28:19;3.80;;;2.07;;
71965;SDS011;59836;52.132;5.442;2022-07-23T03:30:47;5.25;;;2.75;;
71965;SDS011;59836;52.132;5.442;2022-07-23T03:33:14;4.03;;;2.20;;
71965;SDS011;59836;52.132;5.442;2022-07-23T03:35:49;3.80;;;2.40;;
71965;SDS011;59836;52.132;5.442;2022-07-23T03:40:57;5.20;;;2.80;;
71965;SDS011;59836;52.132;5.442;2022-07-23T03:43:23;4.18;;;2.60;;
71965;SDS011;59836;52.132;5.442;2022-07-23T03:46:10;4.60;;;2.55;;
71965;SDS011;59836;52.132;5.442;2022-07-23T03:48:38;3.88;;;2.33;;
71965;SDS011;59836;52.132;5.442;2022-07-23T03:51:04;3.75;;;2.70;;
71965;SDS011;59836;52.132;5.442;2022-07-23T03:53:30;3.73;;;2.60;;
71965;SDS011;59836;52.132;5.442;2022-07-23T03:55:59;4.93;;;2.50;;
71965;SDS011;59836;52.132;5.442;2022-07-23T03:58:28;3.85;;;2.42;;
71965;SDS011;59836;52.132;5.442;2022-07-23T04:03:54;4.85;;;2.80;;
71965;SDS011;59836;52.132;5.442;2022-07-23T04:06:21;4.10;;;2.30;;
71965;SDS011;59836;52.132;5.442;2022-07-23T04:08:52;3.92;;;2.50;;
71965;SDS011;59836;52.132;5.442;2022-07-23T04:14:29;3.75;;;2.38;;
71965;SDS011;59836;52.132;5.442;2022-07-23T04:17:03;3.63;;;2.45;;
71965;SDS011;59836;52.132;5.442;2022-07-23T04:29:28;3.08;;;2.28;;
71965;SDS011;59836;52.132;5.442;2022-07-23T04:31:59;3.78;;;2.40;;
71965;SDS011;59836;52.132;5.442;2022-07-23T04:34:27;2.77;;;2.13;;
71965;SDS011;59836;52.132;5.442;2022-07-23T04:36:54;3.80;;;2.65;;
71965;SDS011;59836;52.132;5.442;2022-07-23T04:39:20;2.88;;;2.20;;
71965;SDS011;59836;52.132;5.442;2022-07-23T04:41:47;3.22;;;2.30;;
71965;SDS011;59836;52.132;5.442;2022-07-23T04:44:14;4.97;;;2.65;;
71965;SDS011;59836;52.132;5.442;2022-07-23T04:46:53;3.77;;;2.23;;
71965;SDS011;59836;52.132;5.442;2022-07-23T04:49:21;3.58;;;2.60;;
71965;SDS011;59836;52.132;5.442;2022-07-23T04:51:47;3.50;;;2.63;;
71965;SDS011;59836;52.132;5.442;2022-07-23T04:56:44;4.18;;;2.42;;
71965;SDS011;59836;52.132;5.442;2022-07-23T04:59:11;3.77;;;2.07;;
71965;SDS011;59836;52.132;5.442;2022-07-23T05:01:54;3.03;;;2.10;;
71965;SDS011;59836;52.132;5.442;2022-07-23T05:04:20;4.10;;;2.40;;
71965;SDS011;59836;52.132;5.442;2022-07-23T05:06:47;3.42;;;2.35;;
71965;SDS011;59836;52.132;5.442;2022-07-23T05:12:24;3.20;;;2.27;;
71965;SDS011;59836;52.132;5.442;2022-07-23T05:14:50;2.97;;;2.08;;
71965;SDS011;59836;52.132;5.442;2022-07-23T05:17:19;3.85;;;2.58;;
71965;SDS011;59836;52.132;5.442;2022-07-23T05:19:55;4.10;;;2.42;;
71965;SDS011;59836;52.132;5.442;2022-07-23T05:22:33;3.40;;;2.38;;
71965;SDS011;59836;52.132;5.442;2022-07-23T05:27:45;3.40;;;2.80;;
71965;SDS011;59836;52.132;5.442;2022-07-23T05:30:12;5.53;;;3.67;;
71965;SDS011;59836;52.132;5.442;2022-07-23T05:32:38;4.72;;;3.20;;
71965;SDS011;59836;52.132;5.442;2022-07-23T05:35:15;6.75;;;3.95;;
71965;SDS011;59836;52.132;5.442;2022-07-23T05:37:58;6.43;;;3.50;;
71965;SDS011;59836;52.132;5.442;2022-07-23T05:40:26;5.65;;;3.30;;
71965;SDS011;59836;52.132;5.442;2022-07-23T05:42:54;6.30;;;4.05;;
71965;SDS011;59836;52.132;5.442;2022-07-23T05:45:21;6.00;;;3.40;;
71965;SDS011;59836;52.132;5.442;2022-07-23T05:52:53;5.88;;;2.80;;
71965;SDS011;59836;52.132;5.442;2022-07-23T05:55:19;5.72;;;3.13;;
71965;SDS011;59836;52.132;5.442;2022-07-23T05:57:46;6.55;;;2.97;;
71965;SDS011;59836;52.132;5.442;2022-07-23T06:00:12;3.63;;;2.50;;
71965;SDS011;59836;52.132;5.442;2022-07-23T06:02:50;4.27;;;2.63;;
71965;SDS011;59836;52.132;5.442;2022-07-23T06:05:21;5.30;;;3.03;;
71965;SDS011;59836;52.132;5.442;2022-07-23T06:07:47;2.92;;;2.40;;
71965;SDS011;59836;52.132;5.442;2022-07-23T06:10:14;3.15;;;2.30;;
71965;SDS011;59836;52.132;5.442;2022-07-23T06:12:41;3.58;;;2.60;;
71965;SDS011;59836;52.132;5.442;2022-07-23T06:15:07;4.83;;;2.80;;
71965;SDS011;59836;52.132;5.442;2022-07-23T06:17:38;4.00;;;3.10;;
71965;SDS011;59836;52.132;5.442;2022-07-23T06:20:09;3.80;;;2.88;;
71965;SDS011;59836;52.132;5.442;2022-07-23T06:22:36;5.80;;;2.63;;
71965;SDS011;59836;52.132;5.442;2022-07-23T06:25:03;6.95;;;3.13;;
71965;SDS011;59836;52.132;5.442;2022-07-23T06:27:37;5.03;;;2.37;;
71965;SDS011;59836;52.132;5.442;2022-07-23T06:30:04;4.00;;;2.28;;
71965;SDS011;59836;52.132;5.442;2022-07-23T06:32:32;5.10;;;2.70;;
71965;SDS011;59836;52.132;5.442;2022-07-23T06:34:59;4.50;;;2.00;;
71965;SDS011;59836;52.132;5.442;2022-07-23T06:37:25;5.28;;;2.25;;
71965;SDS011;59836;52.132;5.442;2022-07-23T06:39:52;2.90;;;2.20;;
71965;SDS011;59836;52.132;5.442;2022-07-23T06:42:19;3.33;;;2.40;;
71965;SDS011;59836;52.132;5.442;2022-07-23T06:44:46;3.17;;;2.30;;
71965;SDS011;59836;52.132;5.442;2022-07-23T06:47:17;3.15;;;2.15;;
71965;SDS011;59836;52.132;5.442;2022-07-23T06:49:44;3.22;;;2.30;;
71965;SDS011;59836;52.132;5.442;2022-07-23T06:52:10;3.37;;;2.27;;
71965;SDS011;59836;52.132;5.442;2022-07-23T06:57:15;4.65;;;2.30;;
71965;SDS011;59836;52.132;5.442;2022-07-23T06:59:42;3.25;;;2.33;;
71965;SDS011;59836;52.132;5.442;2022-07-23T07:02:15;3.67;;;1.90;;
71965;SDS011;59836;52.132;5.442;2022-07-23T07:04:43;3.83;;;1.90;;
71965;SDS011;59836;52.132;5.442;2022-07-23T07:07:17;4.20;;;2.22;;
71965;SDS011;59836;52.132;5.442;2022-07-23T07:12:41;5.88;;;1.83;;
71965;SDS011;59836;52.132;5.442;2022-07-23T07:15:07;5.15;;;1.83;;
71965;SDS011;59836;52.132;5.442;2022-07-23T07:17:34;2.40;;;1.60;;
71965;SDS011;59836;52.132;5.442;2022-07-23T07:20:01;4.53;;;1.90;;
71965;SDS011;59836;52.132;5.442;2022-07-23T07:22:27;2.47;;;1.60;;
71965;SDS011;59836;52.132;5.442;2022-07-23T07:24:54;3.28;;;1.85;;
71965;SDS011;59836;52.132;5.442;2022-07-23T07:29:52;2.53;;;1.90;;
71965;SDS011;59836;52.132;5.442;2022-07-23T07:32:19;3.97;;;1.92;;
71965;SDS011;59836;52.132;5.442;2022-07-23T07:35:06;2.55;;;1.85;;
71965;SDS011;59836;52.132;5.442;2022-07-23T07:37:33;4.95;;;1.75;;
71965;SDS011;59836;52.132;5.442;2022-07-23T07:39:59;5.03;;;1.58;;
71965;SDS011;59836;52.132;5.442;2022-07-23T07:42:26;3.77;;;1.63;;
71965;SDS011;59836;52.132;5.442;2022-07-23T07:44:52;2.47;;;1.58;;
71965;SDS011;59836;52.132;5.442;2022-07-23T07:47:27;2.72;;;1.98;;
71965;SDS011;59836;52.132;5.442;2022-07-23T07:49:53;2.28;;;1.45;;
71965;SDS011;59836;52.132;5.442;2022-07-23T07:52:19;3.88;;;1.70;;
71965;SDS011;59836;52.132;5.442;2022-07-23T07:54:50;3.43;;;1.40;;
71965;SDS011;59836;52.132;5.442;2022-07-23T07:57:17;3.63;;;1.40;;
71965;SDS011;59836;52.132;5.442;2022-07-23T07:59:53;2.70;;;1.77;;
71965;SDS011;59836;52.132;5.442;2022-07-23T08:02:27;2.92;;;1.40;;
71965;SDS011;59836;52.132;5.442;2022-07-23T08:04:54;1.90;;;1.30;;
71965;SDS011;59836;52.132;5.442;2022-07-23T08:07:23;3.87;;;1.53;;
71965;SDS011;59836;52.132;5.442;2022-07-23T08:09:58;3.17;;;1.40;;
71965;SDS011;59836;52.132;5.442;2022-07-23T08:12:24;3.10;;;1.48;;
71965;SDS011;59836;52.132;5.442;2022-07-23T08:17:39;3.03;;;1.30;;
71965;SDS011;59836;52.132;5.442;2022-07-23T08:22:48;3.15;;;1.50;;
71965;SDS011;59836;52.132;5.442;2022-07-23T08:25:16;2.53;;;1.55;;
71965;SDS011;59836;52.132;5.442;2022-07-23T08:27:51;2.13;;;1.52;;
71965;SDS011;59836;52.132;5.442;2022-07-23T08:30:18;3.03;;;1.30;;
71965;SDS011;59836;52.132;5.442;2022-07-23T08:32:49;2.80;;;1.57;;
71965;SDS011;59836;52.132;5.442;2022-07-23T08:35:17;4.25;;;1.55;;
71965;SDS011;59836;52.132;5.442;2022-07-23T08:37:47;2.05;;;1.30;;
71965;SDS011;59836;52.132;5.442;2022-07-23T08:40:20;2.75;;;1.17;;
71965;SDS011;59836;52.132;5.442;2022-07-23T08:42:53;3.90;;;1.20;;
71965;SDS011;59836;52.132;5.442;2022-07-23T08:53:45;12.13;;;1.83;;
71965;SDS011;59836;52.132;5.442;2022-07-23T08:56:12;3.75;;;1.25;;
71965;SDS011;59836;52.132;5.442;2022-07-23T08:58:39;2.17;;;1.20;;
71965;SDS011;59836;52.132;5.442;2022-07-23T09:01:05;1.90;;;1.10;;
71965;SDS011;59836;52.132;5.442;2022-07-23T09:03:33;3.90;;;1.60;;
71965;SDS011;59836;52.132;5.442;2022-07-23T09:06:02;2.83;;;1.20;;
71965;SDS011;59836;52.132;5.442;2022-07-23T09:08:38;3.58;;;1.27;;
71965;SDS011;59836;52.132;5.442;2022-07-23T09:11:07;3.77;;;1.00;;
71965;SDS011;59836;52.132;5.442;2022-07-23T09:16:06;2.72;;;1.17;;
71965;SDS011;59836;52.132;5.442;2022-07-23T09:18:41;2.50;;;1.02;;
71965;SDS011;59836;52.132;5.442;2022-07-23T09:21:19;3.53;;;1.30;;
71965;SDS011;59836;52.132;5.442;2022-07-23T09:24:02;3.30;;;1.50;;
71965;SDS011;59836;52.132;5.442;2022-07-23T09:26:37;2.42;;;0.90;;
71965;SDS011;59836;52.132;5.442;2022-07-23T09:31:35;2.65;;;1.35;;
71965;SDS011;59836;52.132;5.442;2022-07-23T09:34:18;1.83;;;1.40;;
71965;SDS011;59836;52.132;5.442;2022-07-23T09:36:50;1.67;;;1.03;;
71965;SDS011;59836;52.132;5.442;2022-07-23T09:39:27;2.20;;;1.10;;
71965;SDS011;59836;52.132;5.442;2022-07-23T09:42:11;2.92;;;1.15;;
71965;SDS011;59836;52.132;5.442;2022-07-23T09:44:43;2.40;;;1.40;;
71965;SDS011;59836;52.132;5.442;2022-07-23T09:47:11;2.70;;;1.60;;
71965;SDS011;59836;52.132;5.442;2022-07-23T09:49:37;2.10;;;1.40;;
71965;SDS011;59836;52.132;5.442;2022-07-23T09:52:04;2.58;;;1.20;;
71965;SDS011;59836;52.132;5.442;2022-07-23T09:54:35;2.67;;;1.42;;
71965;SDS011;59836;52.132;5.442;2022-07-23T09:57:07;1.92;;;1.33;;
71965;SDS011;59836;52.132;5.442;2022-07-23T09:59:40;2.00;;;1.10;;
71965;SDS011;59836;52.132;5.442;2022-07-23T10:02:08;2.53;;;1.10;;
71965;SDS011;59836;52.132;5.442;2022-07-23T10:04:36;2.63;;;1.20;;
71965;SDS011;59836;52.132;5.442;2022-07-23T10:07:04;2.97;;;1.48;;
71965;SDS011;59836;52.132;5.442;2022-07-23T10:09:34;5.32;;;1.10;;
71965;SDS011;59836;52.132;5.442;2022-07-23T10:12:03;2.30;;;1.23;;
71965;SDS011;59836;52.132;5.442;2022-07-23T10:14:40;3.07;;;1.60;;
71965;SDS011;59836;52.132;5.442;2022-07-23T10:17:06;1.40;;;1.10;;
71965;SDS011;59836;52.132;5.442;2022-07-23T10:19:33;3.25;;;1.20;;
71965;SDS011;59836;52.132;5.442;2022-07-23T10:22:01;2.08;;;0.95;;
71965;SDS011;59836;52.132;5.442;2022-07-23T10:24:53;2.35;;;1.25;;
71965;SDS011;59836;52.132;5.442;2022-07-23T10:33:37;3.35;;;1.08;;
71965;SDS011;59836;52.132;5.442;2022-07-23T10:36:18;2.10;;;0.93;;
71965;SDS011;59836;52.132;5.442;2022-07-23T10:41:32;2.20;;;0.90;;
71965;SDS011;59836;52.132;5.442;2022-07-23T10:44:10;1.67;;;0.80;;
71965;SDS011;59836;52.132;5.442;2022-07-23T10:47:00;3.13;;;1.52;;
71965;SDS011;59836;52.132;5.442;2022-07-23T10:49:32;3.13;;;1.40;;
71965;SDS011;59836;52.132;5.442;2022-07-23T10:54:56;3.70;;;1.60;;
71965;SDS011;59836;52.132;5.442;2022-07-23T10:57:47;2.22;;;1.10;;
71965;SDS011;59836;52.132;5.442;2022-07-23T11:00:25;1.75;;;1.27;;
71965;SDS011;59836;52.132;5.442;2022-07-23T11:02:53;1.67;;;0.73;;
71965;SDS011;59836;52.132;5.442;2022-07-23T11:05:22;2.75;;;1.30;;
71965;SDS011;59836;52.132;5.442;2022-07-23T11:08:33;1.43;;;0.90;;
71965;SDS011;59836;52.132;5.442;2022-07-23T11:10:54;2.65;;;1.38;;
71965;SDS011;59836;52.132;5.442;2022-07-23T11:16:13;2.10;;;1.00;;
71965;SDS011;59836;52.132;5.442;2022-07-23T11:29:37;2.38;;;1.23;;
71965;SDS011;59836;52.132;5.442;2022-07-23T11:32:00;1.98;;;1.10;;
71965;SDS011;59836;52.132;5.442;2022-07-23T11:34:32;3.30;;;1.17;;
71965;SDS011;59836;52.132;5.442;2022-07-23T11:37:00;1.80;;;1.30;;
71965;SDS011;59836;52.132;5.442;2022-07-23T11:39:28;2.35;;;1.30;;
71965;SDS011;59836;52.132;5.442;2022-07-23T11:41:56;3.00;;;1.30;;
71965;SDS011;59836;52.132;5.442;2022-07-23T11:44:28;2.00;;;1.80;;
71965;SDS011;59836;52.132;5.442;2022-07-23T11:46:56;3.20;;;1.00;;
71965;SDS011;59836;52.132;5.442;2022-07-23T11:49:28;1.65;;;1.20;;
71965;SDS011;59836;52.132;5.442;2022-07-23T11:52:08;3.15;;;1.70;;
71965;SDS011;59836;52.132;5.442;2022-07-23T11:54:37;1.92;;;1.40;;
71965;SDS011;59836;52.132;5.442;2022-07-23T11:57:14;1.92;;;1.10;;
71965;SDS011;59836;52.132;5.442;2022-07-23T11:59:41;2.20;;;1.23;;
71965;SDS011;59836;52.132;5.442;2022-07-23T12:02:09;2.47;;;1.30;;
71965;SDS011;59836;52.132;5.442;2022-07-23T12:04:46;1.60;;;1.42;;
71965;SDS011;59836;52.132;5.442;2022-07-23T12:07:33;3.65;;;1.80;;
71965;SDS011;59836;52.132;5.442;2022-07-23T12:10:08;2.42;;;1.50;;
71965;SDS011;59836;52.132;5.442;2022-07-23T12:12:51;3.27;;;1.53;;
71965;SDS011;59836;52.132;5.442;2022-07-23T12:15:29;2.22;;;1.38;;
71965;SDS011;59836;52.132;5.442;2022-07-23T12:17:59;1.92;;;1.60;;
71965;SDS011;59836;52.132;5.442;2022-07-23T12:20:30;2.15;;;1.20;;
71965;SDS011;59836;52.132;5.442;2022-07-23T12:23:00;4.00;;;1.27;;
71965;SDS011;59836;52.132;5.442;2022-07-23T12:25:28;1.60;;;1.30;;
71965;SDS011;59836;52.132;5.442;2022-07-23T12:28:01;2.45;;;1.13;;
71965;SDS011;59836;52.132;5.442;2022-07-23T12:30:30;2.00;;;1.63;;
71965;SDS011;59836;52.132;5.442;2022-07-23T12:33:00;2.20;;;1.35;;
71965;SDS011;59836;52.132;5.442;2022-07-23T12:38:04;2.03;;;1.10;;
71965;SDS011;59836;52.132;5.442;2022-07-23T12:40:37;3.25;;;1.48;;
71965;SDS011;59836;52.132;5.442;2022-07-23T12:43:17;3.35;;;1.65;;
71965;SDS011;59836;52.132;5.442;2022-07-23T12:48:32;2.90;;;1.30;;
71965;SDS011;59836;52.132;5.442;2022-07-23T12:51:04;2.60;;;1.50;;
71965;SDS011;59836;52.132;5.442;2022-07-23T12:53:47;2.20;;;1.40;;
71965;SDS011;59836;52.132;5.442;2022-07-23T12:56:18;2.95;;;1.52;;
71965;SDS011;59836;52.132;5.442;2022-07-23T12:58:47;2.00;;;1.20;;
71965;SDS011;59836;52.132;5.442;2022-07-23T13:01:27;2.47;;;1.55;;
71965;SDS011;59836;52.132;5.442;2022-07-23T13:09:31;1.73;;;1.60;;
71965;SDS011;59836;52.132;5.442;2022-07-23T13:12:07;3.03;;;1.40;;
71965;SDS011;59836;52.132;5.442;2022-07-23T13:14:36;1.83;;;1.50;;
71965;SDS011;59836;52.132;5.442;2022-07-23T13:17:04;1.43;;;1.20;;
71965;SDS011;59836;52.132;5.442;2022-07-23T13:19:32;2.30;;;1.52;;
71965;SDS011;59836;52.132;5.442;2022-07-23T13:21:58;3.00;;;1.65;;
71965;SDS011;59836;52.132;5.442;2022-07-23T13:24:29;2.83;;;1.50;;
71965;SDS011;59836;52.132;5.442;2022-07-23T13:26:56;1.92;;;1.77;;
71965;SDS011;59836;52.132;5.442;2022-07-23T13:29:24;1.70;;;1.23;;
71965;SDS011;59836;52.132;5.442;2022-07-23T13:31:51;1.98;;;1.27;;
71965;SDS011;59836;52.132;5.442;2022-07-23T13:34:17;2.40;;;1.60;;
71965;SDS011;59836;52.132;5.442;2022-07-23T13:36:45;2.10;;;1.45;;
71965;SDS011;59836;52.132;5.442;2022-07-23T13:39:11;3.83;;;1.90;;
71965;SDS011;59836;52.132;5.442;2022-07-23T13:41:38;4.60;;;1.50;;
71965;SDS011;59836;52.132;5.442;2022-07-23T13:44:05;2.28;;;1.75;;
71965;SDS011;59836;52.132;5.442;2022-07-23T13:46:51;4.15;;;1.83;;
71965;SDS011;59836;52.132;5.442;2022-07-23T13:49:18;2.03;;;1.35;;
71965;SDS011;59836;52.132;5.442;2022-07-23T13:51:44;2.13;;;1.80;;
71965;SDS011;59836;52.132;5.442;2022-07-23T13:54:11;1.47;;;1.37;;
71965;SDS011;59836;52.132;5.442;2022-07-23T13:56:38;2.53;;;1.90;;
71965;SDS011;59836;52.132;5.442;2022-07-23T13:59:04;3.17;;;1.40;;
71965;SDS011;59836;52.132;5.442;2022-07-23T14:01:51;3.28;;;1.63;;
71965;SDS011;59836;52.132;5.442;2022-07-23T14:04:37;1.65;;;1.50;;
71965;SDS011;59836;52.132;5.442;2022-07-23T14:07:04;1.90;;;1.53;;
71965;SDS011;59836;52.132;5.442;2022-07-23T14:09:30;2.28;;;1.02;;
71965;SDS011;59836;52.132;5.442;2022-07-23T14:11:59;4.05;;;1.70;;
71965;SDS011;59836;52.132;5.442;2022-07-23T14:14:27;1.95;;;1.08;;
71965;SDS011;59836;52.132;5.442;2022-07-23T14:16:54;3.30;;;1.52;;
71965;SDS011;59836;52.132;5.442;2022-07-23T14:19:22;2.70;;;1.50;;
71965;SDS011;59836;52.132;5.442;2022-07-23T14:21:49;2.45;;;1.55;;
71965;SDS011;59836;52.132;5.442;2022-07-23T14:24:16;1.83;;;1.67;;
71965;SDS011;59836;52.132;5.442;2022-07-23T14:26:44;3.55;;;1.50;;
71965;SDS011;59836;52.132;5.442;2022-07-23T14:29:10;2.10;;;1.73;;
71965;SDS011;59836;52.132;5.442;2022-07-23T14:31:37;2.10;;;1.43;;
71965;SDS011;59836;52.132;5.442;2022-07-23T14:34:04;2.97;;;1.10;;
71965;SDS011;59836;52.132;5.442;2022-07-23T14:36:32;3.03;;;1.70;;
71965;SDS011;59836;52.132;5.442;2022-07-23T14:38:59;3.70;;;1.90;;
71965;SDS011;59836;52.132;5.442;2022-07-23T14:41:28;3.47;;;1.60;;
71965;SDS011;59836;52.132;5.442;2022-07-23T14:43:55;2.77;;;1.47;;
71965;SDS011;59836;52.132;5.442;2022-07-23T14:46:22;2.25;;;1.45;;
71965;SDS011;59836;52.132;5.442;2022-07-23T14:48:49;3.13;;;1.77;;
71965;SDS011;59836;52.132;5.442;2022-07-23T14:51:15;3.10;;;1.52;;
71965;SDS011;59836;52.132;5.442;2022-07-23T14:53:44;3.13;;;1.30;;
71965;SDS011;59836;52.132;5.442;2022-07-23T14:56:11;3.57;;;1.43;;
71965;SDS011;59836;52.132;5.442;2022-07-23T14:58:40;2.42;;;1.50;;
71965;SDS011;59836;52.132;5.442;2022-07-23T15:01:08;2.75;;;1.50;;
71965;SDS011;59836;52.132;5.442;2022-07-23T15:03:34;2.72;;;1.30;;
71965;SDS011;59836;52.132;5.442;2022-07-23T15:06:08;3.55;;;1.65;;
71965;SDS011;59836;52.132;5.442;2022-07-23T15:08:34;4.27;;;1.60;;
71965;SDS011;59836;52.132;5.442;2022-07-23T15:11:01;2.42;;;1.90;;
71965;SDS011;59836;52.132;5.442;2022-07-23T15:13:27;2.25;;;1.65;;
71965;SDS011;59836;52.132;5.442;2022-07-23T15:15:54;2.45;;;1.48;;
71965;SDS011;59836;52.132;5.442;2022-07-23T15:18:22;2.42;;;1.73;;
71965;SDS011;59836;52.132;5.442;2022-07-23T15:20:48;2.50;;;1.57;;
71965;SDS011;59836;52.132;5.442;2022-07-23T15:23:14;2.15;;;1.38;;
71965;SDS011;59836;52.132;5.442;2022-07-23T15:25:41;2.00;;;1.65;;
71965;SDS011;59836;52.132;5.442;2022-07-23T15:28:15;1.77;;;1.38;;
71965;SDS011;59836;52.132;5.442;2022-07-23T15:30:46;3.00;;;1.80;;
71965;SDS011;59836;52.132;5.442;2022-07-23T15:33:13;3.00;;;1.40;;
71965;SDS011;59836;52.132;5.442;2022-07-23T15:35:47;2.63;;;1.90;;
71965;SDS011;59836;52.132;5.442;2022-07-23T15:38:13;2.40;;;1.90;;
71965;SDS011;59836;52.132;5.442;2022-07-23T15:40:48;1.90;;;1.40;;
71965;SDS011;59836;52.132;5.442;2022-07-23T15:43:15;2.50;;;1.83;;
71965;SDS011;59836;52.132;5.442;2022-07-23T15:45:43;3.67;;;1.70;;
71965;SDS011;59836;52.132;5.442;2022-07-23T15:48:10;3.80;;;1.67;;
71965;SDS011;59836;52.132;5.442;2022-07-23T15:50:38;2.40;;;1.65;;
71965;SDS011;59836;52.132;5.442;2022-07-23T15:53:11;3.85;;;2.10;;
71965;SDS011;59836;52.132;5.442;2022-07-23T15:55:41;3.38;;;1.85;;
71965;SDS011;59836;52.132;5.442;2022-07-23T15:58:11;4.73;;;1.90;;
71965;SDS011;59836;52.132;5.442;2022-07-23T16:00:38;3.75;;;1.70;;
71965;SDS011;59836;52.132;5.442;2022-07-23T16:03:05;3.35;;;1.88;;
71965;SDS011;59836;52.132;5.442;2022-07-23T16:05:33;2.47;;;1.50;;
71965;SDS011;59836;52.132;5.442;2022-07-23T16:08:01;1.83;;;1.55;;
71965;SDS011;59836;52.132;5.442;2022-07-23T16:10:28;1.70;;;1.23;;
71965;SDS011;59836;52.132;5.442;2022-07-23T16:12:55;4.07;;;1.80;;
71965;SDS011;59836;52.132;5.442;2022-07-23T16:15:21;3.35;;;2.20;;
71965;SDS011;59836;52.132;5.442;2022-07-23T16:17:48;2.35;;;1.67;;
71965;SDS011;59836;52.132;5.442;2022-07-23T16:20:15;2.58;;;1.80;;
71965;SDS011;59836;52.132;5.442;2022-07-23T16:22:41;3.60;;;1.90;;
71965;SDS011;59836;52.132;5.442;2022-07-23T16:25:08;2.95;;;1.48;;
71965;SDS011;59836;52.132;5.442;2022-07-23T16:27:37;3.00;;;1.80;;
71965;SDS011;59836;52.132;5.442;2022-07-23T16:30:05;3.25;;;1.27;;
71965;SDS011;59836;52.132;5.442;2022-07-23T16:32:32;2.97;;;1.58;;
71965;SDS011;59836;52.132;5.442;2022-07-23T16:34:58;3.00;;;1.80;;
71965;SDS011;59836;52.132;5.442;2022-07-23T16:37:26;1.98;;;1.55;;
71965;SDS011;59836;52.132;5.442;2022-07-23T16:39:52;3.83;;;1.73;;
71965;SDS011;59836;52.132;5.442;2022-07-23T16:42:19;3.08;;;2.03;;
71965;SDS011;59836;52.132;5.442;2022-07-23T16:44:46;3.30;;;2.45;;
71965;SDS011;59836;52.132;5.442;2022-07-23T16:47:13;3.00;;;1.63;;
71965;SDS011;59836;52.132;5.442;2022-07-23T16:49:39;2.97;;;1.75;;
71965;SDS011;59836;52.132;5.442;2022-07-23T16:52:06;3.88;;;2.45;;
71965;SDS011;59836;52.132;5.442;2022-07-23T16:54:33;3.58;;;1.52;;
71965;SDS011;59836;52.132;5.442;2022-07-23T16:56:59;3.03;;;1.67;;
71965;SDS011;59836;52.132;5.442;2022-07-23T16:59:26;4.23;;;1.60;;
71965;SDS011;59836;52.132;5.442;2022-07-23T17:01:52;3.30;;;1.60;;
71965;SDS011;59836;52.132;5.442;2022-07-23T17:04:19;4.35;;;2.00;;
71965;SDS011;59836;52.132;5.442;2022-07-23T17:06:45;3.30;;;1.50;;
71965;SDS011;59836;52.132;5.442;2022-07-23T17:09:12;3.17;;;1.80;;
71965;SDS011;59836;52.132;5.442;2022-07-23T17:11:39;2.50;;;1.83;;
71965;SDS011;59836;52.132;5.442;2022-07-23T17:14:06;3.28;;;1.77;;
71965;SDS011;59836;52.132;5.442;2022-07-23T17:16:33;2.17;;;1.70;;
71965;SDS011;59836;52.132;5.442;2022-07-23T17:19:02;2.78;;;2.15;;